aviador You're here:

KDTS Decoded Metar

DESTIN in FL, USA
Report Time2018-04-26 00:53:00
UTC Time2018-04-26 01:37:04
Flight Rules vfr VFR
Wind260° at 05 kt
W.Decomp.*RWY 32: 2.6 kt HW 4.3 kt LCW
W.Rank260° ranks 32
Current wind is below 260° avg. (5.8)
Visibility9999 m
Phenomena:N/A
Clouds:N/A
Expected CloudBase > 2,000 ft AGL from Temp-Dew spread
CeilingNone
Temp22°C (ISA +7)
Dew Point17°C (73% RH)
QNH1013 hPa
Density Alt1,093 ft
Elevation16 ft
Report Wrong Elevation
Raw Report
KDTS 260053Z 26005KT 10SM CLR 22/17 A2992 RMK AO2 SLP131 T02220167
$=

Extra information for KDTS:More info

Metar Taf Metar & Taf Last 4 Metars F.Rules Stats Wind Profile Meteogram Temp Stats Airport Information Weather charts Add Link Nearby VenuesMetar ALERT Operation Metar Decoded Social comments

AIRNAV info for KDTS